Time;durP1;ratioP1;P1;durP2;ratioP2;P2;SDS_P1;SDS_P2;PMS_P1;PMS_P2;Temp;Humidity;BMP_temperature;BMP_pressure;BME280_temperature;BME280_humidity;BME280_pressure;Samples;Min_cycle;Max_cycle;Signal;HPM_P1;HPM_P2
2022/10/19 00:01:23;;;;;;;;;18.33;15.00;;;;;;;;5081663;27;45399;-74
2022/10/19 00:03:50;;;;;;;;;14.00;12.33;;;;;;;;5084884;27;45286;-74
2022/10/19 00:06:23;;;;;;;;;14.00;14.00;;;;;;;;5091125;27;45291;-73
2022/10/19 00:08:49;;;;;;;;;17.33;14.33;;;;;;;;5083890;27;45313;-73
2022/10/19 00:11:14;;;;;;;;;18.00;14.33;;;;;;;;5080926;27;46141;-74
2022/10/19 00:13:39;;;;;;;;;13.67;12.00;;;;;;;;5081279;27;44720;-73
2022/10/19 00:16:09;;;;;;;;;14.67;13.00;;;;;;;;5081495;27;45276;-74
2022/10/19 00:18:34;;;;;;;;;15.00;14.67;;;;;;;;5088271;27;45319;-74
2022/10/19 00:21:06;;;;;;;;;17.00;15.33;;;;;;;;5090854;27;45344;-74
2022/10/19 00:23:32;;;;;;;;;18.00;15.00;;;;;;;;5086756;27;45404;-74
2022/10/19 00:25:58;;;;;;;;;16.33;16.33;;;;;;;;5083047;27;45387;-74
2022/10/19 00:28:23;;;;;;;;;18.33;15.00;;;;;;;;5082385;27;45276;-73
2022/10/19 00:30:48;;;;;;;;;17.33;16.00;;;;;;;;5073051;27;47004;-74
2022/10/19 00:33:19;;;;;;;;;15.33;15.33;;;;;;;;5083084;27;45533;-74
2022/10/19 00:35:47;;;;;;;;;17.33;16.33;;;;;;;;5091018;27;45213;-74
2022/10/19 00:38:12;;;;;;;;;18.00;15.00;;;;;;;;5080758;27;45425;-74
2022/10/19 00:40:37;;;;;;;;;15.00;15.00;;;;;;;;5079681;27;45311;-74
2022/10/19 00:43:03;;;;;;;;;19.00;16.67;;;;;;;;5079745;27;45426;-73
2022/10/19 00:45:28;;;;;;;;;15.67;15.67;;;;;;;;5079358;27;45463;-74
2022/10/19 00:47:53;;;;;;;;;15.33;14.33;;;;;;;;5080353;27;45335;-74
2022/10/19 00:50:18;;;;;;;;;16.00;16.00;;;;;;;;5076901;27;47968;-74
2022/10/19 00:52:44;;;;;;;;;15.00;13.00;;;;;;;;5088646;27;45332;-73
2022/10/19 00:55:10;;;;;;;;;15.00;12.00;;;;;;;;5078525;27;45355;-73
2022/10/19 00:57:35;;;;;;;;;16.33;15.33;;;;;;;;5085111;27;45289;-74
2022/10/19 01:00:02;;;;;;;;;11.00;10.67;;;;;;;;5077937;27;45391;-73
2022/10/19 01:02:27;;;;;;;;;13.33;9.67;;;;;;;;5083677;27;45320;-74
2022/10/19 01:04:53;;;;;;;;;14.00;12.67;;;;;;;;5078258;27;45290;-74
2022/10/19 01:07:18;;;;;;;;;10.67;10.00;;;;;;;;5077141;27;46733;-74
2022/10/19 01:09:43;;;;;;;;;10.67;10.67;;;;;;;;5077417;27;46917;-74
2022/10/19 01:12:14;;;;;;;;;12.67;11.67;;;;;;;;5086309;27;45344;-74
2022/10/19 01:14:52;;;;;;;;;11.00;10.00;;;;;;;;5066353;27;46397;-74
2022/10/19 01:17:23;;;;;;;;;13.00;10.00;;;;;;;;5085565;27;45519;-73
2022/10/19 01:20:01;;;;;;;;;12.00;10.67;;;;;;;;5063315;28;47235;-74
2022/10/19 01:22:26;;;;;;;;;8.67;8.67;;;;;;;;5086730;27;45419;-73
2022/10/19 01:24:51;;;;;;;;;9.00;9.00;;;;;;;;5081613;27;45343;-73
2022/10/19 01:27:16;;;;;;;;;10.00;9.00;;;;;;;;5085952;27;45379;-73
2022/10/19 01:29:57;;;;;;;;;10.25;10.25;;;;;;;;5065119;27;45724;-73
2022/10/19 01:32:25;;;;;;;;;11.67;9.00;;;;;;;;5081047;27;45298;-72
2022/10/19 01:34:54;;;;;;;;;11.67;10.33;;;;;;;;5083920;27;45626;-73
2022/10/19 01:37:27;;;;;;;;;12.00;10.00;;;;;;;;5085318;27;45471;-73
2022/10/19 01:40:13;;;;;;;;;11.33;11.33;;;;;;;;5083465;27;45468;-73
2022/10/19 01:42:38;;;;;;;;;8.67;8.67;;;;;;;;5083271;27;45430;-73
2022/10/19 01:45:17;;;;;;;;;10.33;9.33;;;;;;;;5081377;27;45677;-72
2022/10/19 01:47:54;;;;;;;;;11.00;11.00;;;;;;;;5085835;27;45284;-72
2022/10/19 01:50:23;;;;;;;;;10.00;9.00;;;;;;;;5081844;27;45389;-72
2022/10/19 01:52:49;;;;;;;;;10.00;9.00;;;;;;;;5084922;27;45283;-73
2022/10/19 01:55:15;;;;;;;;;6.00;6.00;;;;;;;;5081148;27;45351;-73
2022/10/19 01:57:48;;;;;;;;;11.00;10.00;;;;;;;;5088058;27;45229;-72
2022/10/19 02:00:14;;;;;;;;;7.67;7.67;;;;;;;;5081473;27;45426;-73
2022/10/19 02:02:42;;;;;;;;;8.00;8.00;;;;;;;;5086870;27;45289;-73
2022/10/19 02:05:07;;;;;;;;;9.00;9.00;;;;;;;;5097053;27;45425;-73
2022/10/19 02:07:33;;;;;;;;;9.67;8.33;;;;;;;;5090633;27;45467;-73
2022/10/19 02:09:59;;;;;;;;;11.67;10.33;;;;;;;;5080674;27;45348;-73
2022/10/19 02:12:25;;;;;;;;;9.33;9.33;;;;;;;;5080303;27;45315;-73
2022/10/19 02:14:55;;;;;;;;;10.67;10.33;;;;;;;;5081036;27;45284;-73
2022/10/19 02:17:23;;;;;;;;;10.00;8.00;;;;;;;;5084641;27;45704;-73
2022/10/19 02:19:49;;;;;;;;;9.67;9.00;;;;;;;;5068148;27;47241;-73
2022/10/19 02:22:14;;;;;;;;;13.67;12.67;;;;;;;;5083634;27;45440;-73
2022/10/19 02:24:39;;;;;;;;;12.00;11.67;;;;;;;;5082080;27;45452;-72
2022/10/19 02:27:06;;;;;;;;;9.67;9.67;;;;;;;;5083412;27;45468;-72
2022/10/19 02:29:32;;;;;;;;;4.33;4.33;;;;;;;;5082996;27;45425;-72
2022/10/19 02:31:58;;;;;;;;;10.33;10.00;;;;;;;;5078466;27;45453;-73
2022/10/19 02:34:23;;;;;;;;;11.33;9.67;;;;;;;;5085561;27;45408;-72
2022/10/19 02:36:48;;;;;;;;;10.33;9.33;;;;;;;;5080290;27;46215;-73
2022/10/19 02:39:14;;;;;;;;;10.00;7.33;;;;;;;;5096452;27;45557;-72
2022/10/19 02:41:53;;;;;;;;;10.67;10.67;;;;;;;;5089885;27;45732;-72
2022/10/19 02:44:21;;;;;;;;;9.67;9.00;;;;;;;;5084498;27;45263;-72
2022/10/19 02:46:52;;;;;;;;;10.00;9.00;;;;;;;;5091026;27;45448;-72
2022/10/19 02:49:18;;;;;;;;;9.67;8.67;;;;;;;;5082955;27;45340;-73
2022/10/19 02:51:59;;;;;;;;;9.00;9.00;;;;;;;;5088668;27;45299;-72
2022/10/19 02:54:25;;;;;;;;;10.67;9.33;;;;;;;;5084111;27;45756;-72
2022/10/19 02:56:50;;;;;;;;;11.67;10.00;;;;;;;;5082029;27;46096;-73
2022/10/19 02:59:16;;;;;;;;;8.33;8.33;;;;;;;;5084123;27;46049;-73
2022/10/19 03:01:41;;;;;;;;;10.00;10.00;;;;;;;;5085363;27;45367;-73
2022/10/19 03:04:06;;;;;;;;;10.00;8.33;;;;;;;;5095569;27;45605;-73
2022/10/19 03:06:31;;;;;;;;;9.67;8.00;;;;;;;;5085840;27;45204;-72
2022/10/19 03:08:57;;;;;;;;;9.67;9.00;;;;;;;;5080328;27;45421;-72
2022/10/19 03:11:22;;;;;;;;;10.33;9.00;;;;;;;;5089959;27;45395;-72
2022/10/19 03:13:47;;;;;;;;;9.00;9.00;;;;;;;;5077585;27;45361;-72
2022/10/19 03:16:13;;;;;;;;;8.33;6.33;;;;;;;;5088892;27;45407;-73
2022/10/19 03:18:38;;;;;;;;;8.67;8.00;;;;;;;;5072768;27;47133;-73
2022/10/19 03:21:09;;;;;;;;;11.33;10.67;;;;;;;;5092361;27;45431;-73
2022/10/19 03:23:35;;;;;;;;;12.00;10.67;;;;;;;;5091654;27;45244;-73
2022/10/19 03:26:00;;;;;;;;;8.67;8.00;;;;;;;;5094091;27;45237;-73
2022/10/19 03:28:25;;;;;;;;;9.00;9.00;;;;;;;;5093953;27;45299;-73
2022/10/19 03:30:50;;;;;;;;;10.33;8.67;;;;;;;;5095924;27;45318;-73
2022/10/19 03:33:16;;;;;;;;;11.00;9.00;;;;;;;;5096587;27;45263;-73
2022/10/19 03:35:41;;;;;;;;;10.00;9.00;;;;;;;;5086934;27;45649;-73
2022/10/19 03:38:06;;;;;;;;;7.00;7.00;;;;;;;;5076272;27;45441;-74
2022/10/19 03:40:31;;;;;;;;;11.33;9.33;;;;;;;;5090943;27;47590;-74
2022/10/19 03:42:57;;;;;;;;;10.33;9.00;;;;;;;;5087914;27;45171;-73
2022/10/19 03:45:22;;;;;;;;;7.00;7.00;;;;;;;;5090820;27;47361;-72
2022/10/19 03:47:50;;;;;;;;;11.00;10.00;;;;;;;;5090895;27;46298;-72
2022/10/19 03:50:16;;;;;;;;;11.00;10.00;;;;;;;;5095075;27;45387;-73
2022/10/19 03:52:41;;;;;;;;;9.33;9.00;;;;;;;;5085886;27;45443;-73
2022/10/19 03:55:07;;;;;;;;;8.00;7.00;;;;;;;;5096393;27;47248;-73
2022/10/19 03:57:32;;;;;;;;;7.67;7.00;;;;;;;;5077880;27;45448;-74
2022/10/19 03:59:57;;;;;;;;;10.33;10.00;;;;;;;;5086489;27;45335;-74
2022/10/19 04:02:22;;;;;;;;;10.00;9.00;;;;;;;;5088846;27;45355;-73
2022/10/19 04:04:47;;;;;;;;;9.67;8.00;;;;;;;;5090156;27;45216;-73
2022/10/19 04:07:13;;;;;;;;;7.33;6.67;;;;;;;;5086867;27;46182;-73
2022/10/19 04:09:38;;;;;;;;;13.67;9.00;;;;;;;;5096647;27;45448;-73
2022/10/19 04:12:03;;;;;;;;;9.00;9.00;;;;;;;;5091276;27;45563;-73
2022/10/19 04:14:28;;;;;;;;;8.67;8.67;;;;;;;;5098594;27;45401;-73
2022/10/19 04:16:53;;;;;;;;;9.67;7.33;;;;;;;;5089712;27;46214;-73
2022/10/19 04:19:19;;;;;;;;;11.00;11.00;;;;;;;;5097795;27;45347;-74
2022/10/19 04:21:46;;;;;;;;;8.00;8.00;;;;;;;;5068208;27;45434;-73
2022/10/19 04:24:13;;;;;;;;;9.67;6.00;;;;;;;;5075264;27;45837;-73
2022/10/19 04:26:39;;;;;;;;;11.67;10.33;;;;;;;;5089416;27;45383;-73
2022/10/19 04:29:05;;;;;;;;;8.33;8.33;;;;;;;;5093847;27;45461;-73
2022/10/19 04:31:30;;;;;;;;;8.67;7.33;;;;;;;;5091282;27;45235;-73
2022/10/19 04:33:55;;;;;;;;;12.33;10.33;;;;;;;;5098635;27;45470;-73
2022/10/19 04:36:21;;;;;;;;;11.00;11.00;;;;;;;;5089047;27;45339;-73
2022/10/19 04:38:46;;;;;;;;;14.00;12.00;;;;;;;;5085459;27;45361;-73
2022/10/19 04:41:12;;;;;;;;;9.67;9.33;;;;;;;;5076357;27;45719;-73
2022/10/19 04:43:37;;;;;;;;;11.67;10.33;;;;;;;;5087842;27;46356;-74
2022/10/19 04:46:08;;;;;;;;;9.67;9.67;;;;;;;;5076493;27;46859;-74
2022/10/19 04:48:34;;;;;;;;;13.33;10.33;;;;;;;;5086101;27;45272;-74
2022/10/19 04:50:59;;;;;;;;;11.00;11.00;;;;;;;;5090625;27;45264;-73
2022/10/19 04:53:25;;;;;;;;;13.33;10.33;;;;;;;;5075333;28;46114;-73
2022/10/19 04:55:50;;;;;;;;;14.00;12.00;;;;;;;;5076204;27;47230;-73
2022/10/19 04:58:15;;;;;;;;;11.00;11.00;;;;;;;;5081565;27;45212;-73
2022/10/19 05:00:41;;;;;;;;;12.33;11.00;;;;;;;;5095002;27;45334;-73
2022/10/19 05:03:06;;;;;;;;;13.33;11.67;;;;;;;;5079523;27;46000;-73
2022/10/19 05:05:32;;;;;;;;;15.67;10.33;;;;;;;;5096725;27;46202;-73
2022/10/19 05:07:57;;;;;;;;;13.33;12.00;;;;;;;;5080463;27;45378;-73
2022/10/19 05:10:22;;;;;;;;;11.33;11.00;;;;;;;;5082116;27;45541;-74
2022/10/19 05:12:47;;;;;;;;;13.67;12.00;;;;;;;;5087562;27;45474;-74
2022/10/19 05:15:12;;;;;;;;;14.67;13.33;;;;;;;;5093704;27;45240;-73
2022/10/19 05:17:38;;;;;;;;;10.00;10.00;;;;;;;;5073978;27;45393;-74
2022/10/19 05:20:03;;;;;;;;;14.00;12.33;;;;;;;;5096559;27;45438;-72
2022/10/19 05:22:28;;;;;;;;;12.33;11.67;;;;;;;;5087435;27;45669;-73
2022/10/19 05:24:53;;;;;;;;;6.67;6.67;;;;;;;;5097811;27;46049;-73
2022/10/19 05:27:19;;;;;;;;;16.00;12.33;;;;;;;;5095377;27;45312;-73
2022/10/19 05:29:44;;;;;;;;;14.00;11.00;;;;;;;;5096315;27;45407;-73
2022/10/19 05:32:09;;;;;;;;;15.00;14.00;;;;;;;;5092914;27;45685;-73
2022/10/19 05:34:34;;;;;;;;;12.00;12.00;;;;;;;;5071874;27;47141;-73
2022/10/19 05:36:59;;;;;;;;;10.67;10.00;;;;;;;;5074718;28;45376;-74
2022/10/19 05:39:25;;;;;;;;;12.67;11.00;;;;;;;;5090607;27;45220;-74
2022/10/19 05:41:50;;;;;;;;;16.00;12.67;;;;;;;;5092815;27;45364;-74
2022/10/19 05:44:17;;;;;;;;;11.67;9.67;;;;;;;;5081815;27;45339;-74
2022/10/19 05:46:43;;;;;;;;;12.67;12.00;;;;;;;;5088951;27;45418;-74
2022/10/19 05:49:09;;;;;;;;;12.33;10.00;;;;;;;;5098801;27;45287;-74
2022/10/19 05:51:34;;;;;;;;;13.67;13.67;;;;;;;;5096199;27;45455;-75
2022/10/19 05:53:59;;;;;;;;;14.33;12.00;;;;;;;;5071110;27;46072;-75
2022/10/19 05:56:26;;;;;;;;;10.67;9.67;;;;;;;;5099082;27;45431;-76
2022/10/19 05:58:51;;;;;;;;;17.67;13.33;;;;;;;;5099614;27;45356;-76
2022/10/19 06:01:20;;;;;;;;;13.00;11.00;;;;;;;;5077779;27;45352;-74
2022/10/19 06:03:46;;;;;;;;;15.33;13.67;;;;;;;;5090338;27;46007;-75
2022/10/19 06:06:11;;;;;;;;;14.67;11.33;;;;;;;;5079389;27;45486;-75
2022/10/19 06:08:37;;;;;;;;;11.00;11.00;;;;;;;;5068146;27;45379;-75
2022/10/19 06:11:03;;;;;;;;;11.00;10.67;;;;;;;;5095004;27;44957;-75
2022/10/19 06:13:29;;;;;;;;;16.33;13.33;;;;;;;;5084243;27;45391;-75
2022/10/19 06:15:54;;;;;;;;;18.00;12.33;;;;;;;;5086986;27;45350;-74
2022/10/19 06:18:24;;;;;;;;;14.67;13.00;;;;;;;;5082356;27;45312;-75
2022/10/19 06:20:49;;;;;;;;;16.33;14.00;;;;;;;;5076428;27;45589;-74
2022/10/19 06:23:14;;;;;;;;;14.67;13.67;;;;;;;;5064423;27;47188;-76
2022/10/19 06:25:40;;;;;;;;;17.00;13.00;;;;;;;;5073800;27;45524;-75
2022/10/19 06:28:05;;;;;;;;;13.67;10.00;;;;;;;;5085652;27;45264;-75
2022/10/19 06:30:31;;;;;;;;;18.00;13.67;;;;;;;;5081413;27;46347;-75
2022/10/19 06:32:57;;;;;;;;;14.67;14.67;;;;;;;;5085022;27;45463;-75
2022/10/19 06:35:22;;;;;;;;;16.33;15.00;;;;;;;;5084443;27;45363;-75
2022/10/19 06:37:48;;;;;;;;;17.67;14.33;;;;;;;;5083668;27;45640;-75
2022/10/19 06:40:13;;;;;;;;;16.00;14.00;;;;;;;;5079872;27;45803;-75
2022/10/19 06:42:38;;;;;;;;;14.67;13.33;;;;;;;;5081251;27;46477;-76
2022/10/19 06:45:12;;;;;;;;;15.00;13.33;;;;;;;;5080318;27;45474;-76
2022/10/19 06:47:38;;;;;;;;;13.00;13.00;;;;;;;;5086085;27;45335;-75
2022/10/19 06:50:04;;;;;;;;;18.67;16.67;;;;;;;;5081213;27;45356;-75
2022/10/19 06:52:29;;;;;;;;;16.00;16.00;;;;;;;;5088430;27;45380;-75
2022/10/19 06:54:54;;;;;;;;;14.00;14.00;;;;;;;;5085808;27;45406;-75
2022/10/19 06:57:19;;;;;;;;;17.00;14.00;;;;;;;;5089110;27;45341;-74
2022/10/19 06:59:44;;;;;;;;;18.33;16.67;;;;;;;;5095455;27;45391;-75
2022/10/19 07:02:14;;;;;;;;;17.67;16.00;;;;;;;;5078172;27;48394;-75
2022/10/19 07:04:39;;;;;;;;;16.33;13.33;;;;;;;;5079489;27;46196;-74
2022/10/19 07:07:04;;;;;;;;;12.00;12.00;;;;;;;;5086693;27;45422;-75
2022/10/19 07:09:29;;;;;;;;;17.33;17.33;;;;;;;;5081066;27;45400;-74
2022/10/19 07:11:54;;;;;;;;;15.33;15.33;;;;;;;;5082268;27;46394;-74
2022/10/19 07:14:20;;;;;;;;;15.00;15.00;;;;;;;;5085238;27;45312;-75
2022/10/19 07:16:45;;;;;;;;;15.33;13.67;;;;;;;;5089181;27;45522;-74
2022/10/19 07:19:12;;;;;;;;;12.33;12.33;;;;;;;;5080061;27;45376;-76
2022/10/19 07:21:40;;;;;;;;;15.00;15.00;;;;;;;;5088486;27;45320;-75
2022/10/19 07:24:05;;;;;;;;;20.33;18.67;;;;;;;;5084056;27;45454;-76
2022/10/19 07:26:32;;;;;;;;;18.00;16.33;;;;;;;;5092060;27;45523;-76
2022/10/19 07:28:57;;;;;;;;;19.33;17.33;;;;;;;;5085693;27;45433;-76
2022/10/19 07:31:23;;;;;;;;;15.00;15.00;;;;;;;;5090248;27;45442;-76
2022/10/19 07:33:52;;;;;;;;;17.33;15.67;;;;;;;;5094719;27;45472;-76
2022/10/19 07:36:17;;;;;;;;;18.00;16.00;;;;;;;;5092223;27;45402;-76
2022/10/19 07:38:43;;;;;;;;;20.00;19.00;;;;;;;;5100144;27;45263;-75
2022/10/19 07:41:11;;;;;;;;;16.33;15.67;;;;;;;;5087313;27;45489;-75
2022/10/19 07:43:36;;;;;;;;;24.00;20.67;;;;;;;;5080185;27;45519;-75
2022/10/19 07:46:04;;;;;;;;;20.33;17.33;;;;;;;;5081055;27;45714;-75
2022/10/19 07:48:29;;;;;;;;;22.67;21.33;;;;;;;;5084097;27;45320;-75
2022/10/19 07:50:54;;;;;;;;;19.00;17.67;;;;;;;;5090774;27;45296;-75
2022/10/19 07:53:20;;;;;;;;;20.67;19.67;;;;;;;;5083393;27;45265;-75
2022/10/19 07:55:45;;;;;;;;;21.33;21.00;;;;;;;;5081391;27;45829;-75
2022/10/19 07:58:10;;;;;;;;;19.00;19.00;;;;;;;;5088164;27;45265;-75
2022/10/19 08:00:35;;;;;;;;;21.00;21.00;;;;;;;;5090552;27;45389;-72
2022/10/19 08:03:01;;;;;;;;;17.67;16.00;;;;;;;;5090832;27;45254;-73
2022/10/19 08:05:26;;;;;;;;;22.00;20.33;;;;;;;;5092534;27;45279;-74
2022/10/19 08:07:51;;;;;;;;;23.33;18.00;;;;;;;;5094366;27;45390;-74
2022/10/19 08:10:16;;;;;;;;;17.33;17.33;;;;;;;;5097222;27;45348;-73
2022/10/19 08:12:41;;;;;;;;;24.00;20.67;;;;;;;;5090371;27;45362;-73
2022/10/19 08:15:07;;;;;;;;;22.33;18.67;;;;;;;;5097625;27;45150;-74
2022/10/19 08:17:35;;;;;;;;;18.00;17.00;;;;;;;;5088107;27;45284;-73
2022/10/19 08:20:01;;;;;;;;;23.67;20.67;;;;;;;;5097322;27;45288;-73
2022/10/19 08:22:26;;;;;;;;;20.67;20.67;;;;;;;;5063552;28;45668;-74
2022/10/19 08:24:51;;;;;;;;;25.33;24.33;;;;;;;;5080999;27;45318;-74
2022/10/19 08:27:16;;;;;;;;;24.67;22.00;;;;;;;;5073125;27;45277;-74
2022/10/19 08:29:42;;;;;;;;;22.67;21.00;;;;;;;;5081960;27;45474;-73
2022/10/19 08:32:07;;;;;;;;;26.00;21.67;;;;;;;;5081855;27;45346;-74
2022/10/19 08:34:33;;;;;;;;;28.33;23.67;;;;;;;;5086201;27;45395;-73
2022/10/19 08:37:00;;;;;;;;;22.00;19.33;;;;;;;;5082217;27;45383;-74
2022/10/19 08:39:25;;;;;;;;;23.33;20.67;;;;;;;;5087948;27;45528;-74
2022/10/19 08:42:13;;;;;;;;;23.00;22.00;;;;;;;;5084073;27;44825;-74
2022/10/19 08:44:48;;;;;;;;;21.00;19.00;;;;;;;;5085567;27;45486;-74
2022/10/19 08:47:32;;;;;;;;;18.67;17.67;;;;;;;;5092987;27;45752;-74
2022/10/19 08:49:57;;;;;;;;;25.00;20.00;;;;;;;;5081456;27;46582;-74
2022/10/19 08:52:25;;;;;;;;;25.67;21.00;;;;;;;;5074319;27;45350;-74
2022/10/19 08:54:52;;;;;;;;;27.67;22.67;;;;;;;;5081921;27;44760;-74
2022/10/19 08:57:36;;;;;;;;;25.67;21.33;;;;;;;;5092171;27;45622;-74
2022/10/19 09:00:07;;;;;;;;;31.00;21.33;;;;;;;;5079265;27;45536;-74
2022/10/19 09:02:42;;;;;;;;;17.00;17.00;;;;;;;;5089778;27;45222;-74
2022/10/19 09:05:31;;;;;;;;;21.00;20.00;;;;;;;;5095351;27;45512;-74
2022/10/19 09:07:56;;;;;;;;;22.67;18.33;;;;;;;;5093811;27;45464;-74
2022/10/19 09:10:33;;;;;;;;;23.33;21.00;;;;;;;;5068853;27;46273;-73
2022/10/19 09:13:00;;;;;;;;;21.00;18.67;;;;;;;;5087090;27;45264;-73
2022/10/19 09:15:46;;;;;;;;;19.00;18.00;;;;;;;;5095571;27;45252;-74
2022/10/19 09:18:21;;;;;;;;;19.33;17.67;;;;;;;;5081832;27;45445;-73
2022/10/19 09:20:47;;;;;;;;;17.67;16.00;;;;;;;;5090150;27;46668;-73
2022/10/19 09:23:36;;;;;;;;;18.67;18.67;;;;;;;;5083479;27;45478;-74
2022/10/19 09:26:02;;;;;;;;;21.33;17.33;;;;;;;;5087942;27;45344;-74
2022/10/19 09:28:42;;;;;;;;;21.00;18.00;;;;;;;;5093598;27;45513;-73
2022/10/19 09:31:13;;;;;;;;;19.33;17.00;;;;;;;;5086490;27;45487;-72
2022/10/19 09:33:40;;;;;;;;;19.00;19.00;;;;;;;;5084873;27;45300;-72
2022/10/19 09:36:06;;;;;;;;;18.00;16.33;;;;;;;;5087905;27;45525;-72
2022/10/19 09:38:31;;;;;;;;;20.67;19.00;;;;;;;;5090202;27;45307;-77
2022/10/19 09:40:58;;;;;;;;;15.33;14.67;;;;;;;;5089987;27;45440;-74
2022/10/19 09:43:24;;;;;;;;;19.00;19.00;;;;;;;;5091066;27;45307;-72
2022/10/19 09:45:54;;;;;;;;;16.67;14.00;;;;;;;;5083740;27;45508;-73
2022/10/19 09:48:19;;;;;;;;;16.33;14.67;;;;;;;;5086465;27;45628;-72
2022/10/19 09:50:50;;;;;;;;;19.33;16.67;;;;;;;;5093018;27;45299;-73
2022/10/19 09:53:19;;;;;;;;;15.00;14.33;;;;;;;;5091816;27;45365;-73
2022/10/19 09:55:50;;;;;;;;;17.33;15.33;;;;;;;;5093625;27;44733;-73
2022/10/19 09:58:16;;;;;;;;;13.67;11.33;;;;;;;;5099332;27;45429;-73
2022/10/19 10:00:43;;;;;;;;;14.33;13.33;;;;;;;;5095700;27;46213;-73
2022/10/19 10:03:21;;;;;;;;;16.67;13.67;;;;;;;;5097133;27;45471;-72
2022/10/19 10:05:47;;;;;;;;;17.00;14.00;;;;;;;;5097416;27;45172;-73
2022/10/19 10:08:17;;;;;;;;;16.00;12.00;;;;;;;;5092016;27;45245;-74
2022/10/19 10:10:48;;;;;;;;;16.33;14.33;;;;;;;;5085308;27;45382;-73
2022/10/19 10:13:17;;;;;;;;;16.00;13.67;;;;;;;;5082663;27;45299;-73
2022/10/19 10:15:43;;;;;;;;;18.33;16.33;;;;;;;;5091873;27;45453;-73
2022/10/19 10:18:15;;;;;;;;;14.67;13.00;;;;;;;;5086901;27;45240;-73
2022/10/19 10:21:00;;;;;;;;;13.67;11.00;;;;;;;;5096918;27;46466;-73
2022/10/19 10:23:27;;;;;;;;;12.00;11.00;;;;;;;;5092041;27;45291;-72
2022/10/19 10:25:56;;;;;;;;;11.00;9.67;;;;;;;;5089097;27;45386;-73
2022/10/19 10:28:23;;;;;;;;;16.67;14.00;;;;;;;;5094005;27;45412;-73
2022/10/19 10:30:52;;;;;;;;;14.00;14.00;;;;;;;;5075637;27;48376;-73
2022/10/19 10:33:24;;;;;;;;;12.00;12.00;;;;;;;;5090978;27;45353;-74
2022/10/19 10:35:54;;;;;;;;;15.00;14.00;;;;;;;;5092595;27;45603;-74
2022/10/19 10:38:22;;;;;;;;;14.00;14.00;;;;;;;;5089548;27;45385;-75
2022/10/19 10:40:51;;;;;;;;;15.00;14.00;;;;;;;;5084049;27;45540;-74
2022/10/19 10:43:19;;;;;;;;;15.67;14.33;;;;;;;;5081049;27;45351;-73
2022/10/19 10:45:45;;;;;;;;;15.33;13.67;;;;;;;;5092923;27;45528;-74
2022/10/19 10:48:20;;;;;;;;;16.67;15.00;;;;;;;;5096223;27;45376;-73
2022/10/19 10:50:46;;;;;;;;;11.00;11.00;;;;;;;;5071737;27;46044;-74
2022/10/19 10:53:30;;;;;;;;;12.33;12.00;;;;;;;;5078918;27;45345;-74
2022/10/19 10:55:56;;;;;;;;;12.00;11.00;;;;;;;;5091157;27;45212;-74
2022/10/19 10:58:34;;;;;;;;;6.00;6.00;;;;;;;;5092746;27;45212;-74
2022/10/19 11:01:02;;;;;;;;;10.50;9.50;;;;;;;;5084184;27;45628;-74
2022/10/19 11:03:32;;;;;;;;;13.00;12.00;;;;;;;;5089946;27;45378;-74
2022/10/19 11:05:59;;;;;;;;;13.25;11.50;;;;;;;;5092734;27;45525;-74
2022/10/19 11:08:32;;;;;;;;;15.25;12.75;;;;;;;;5089344;27;45389;-74
2022/10/19 11:11:00;;;;;;;;;11.50;7.25;;;;;;;;5094401;27;45442;-74
2022/10/19 11:13:41;;;;;;;;;10.50;10.50;;;;;;;;5097465;27;45303;-74
2022/10/19 11:16:16;;;;;;;;;14.00;13.00;;;;;;;;5091191;27;45331;-74
2022/10/19 11:18:47;;;;;;;;;14.50;12.00;;;;;;;;5088725;27;45778;-74
2022/10/19 11:21:25;;;;;;;;;13.00;11.00;;;;;;;;5071448;27;48073;-74
2022/10/19 11:24:13;;;;;;;;;11.00;11.00;;;;;;;;5083386;27;46285;-74
2022/10/19 11:26:57;;;;;;;;;10.00;9.50;;;;;;;;5076384;27;45486;-74
2022/10/19 11:29:30;;;;;;;;;17.75;10.00;;;;;;;;5086875;27;45409;-73
2022/10/19 11:31:55;;;;;;;;;10.50;10.00;;;;;;;;5092404;27;45492;-74
2022/10/19 11:34:39;;;;;;;;;14.75;12.25;;;;;;;;5086116;27;45497;-74
2022/10/19 11:37:05;;;;;;;;;11.50;11.50;;;;;;;;5070978;28;45524;-73
2022/10/19 11:39:48;;;;;;;;;8.75;8.75;;;;;;;;5085169;27;45085;-74
2022/10/19 11:42:18;;;;;;;;;9.75;9.00;;;;;;;;5071141;27;45377;-74
2022/10/19 11:44:50;;;;;;;;;10.00;10.00;;;;;;;;5069829;27;45432;-73
2022/10/19 11:47:18;;;;;;;;;12.00;9.50;;;;;;;;5088539;27;45280;-73
2022/10/19 11:49:46;;;;;;;;;10.25;9.75;;;;;;;;5079633;27;45325;-74
2022/10/19 11:52:18;;;;;;;;;11.25;10.25;;;;;;;;5085041;27;46140;-73
2022/10/19 11:55:03;;;;;;;;;11.50;9.50;;;;;;;;5077089;27;45555;-74
2022/10/19 11:57:35;;;;;;;;;9.25;9.25;;;;;;;;5088966;27;45529;-73
2022/10/19 12:00:03;;;;;;;;;11.00;9.00;;;;;;;;5077833;27;47392;-73
2022/10/19 12:02:37;;;;;;;;;11.50;10.00;;;;;;;;5074816;27;46377;-74
2022/10/19 12:05:05;;;;;;;;;11.60;9.80;;;;;;;;5087196;27;45294;-74
2022/10/19 12:07:31;;;;;;;;;10.00;8.50;;;;;;;;5086686;27;45501;-74
2022/10/19 12:10:15;;;;;;;;;11.50;10.25;;;;;;;;5089881;27;45425;-75
2022/10/19 12:12:49;;;;;;;;;10.50;10.00;;;;;;;;5084914;27;46147;-75
2022/10/19 12:15:32;;;;;;;;;10.25;10.00;;;;;;;;5094792;27;45300;-74
2022/10/19 12:18:05;;;;;;;;;12.00;12.00;;;;;;;;5085273;27;45394;-74
2022/10/19 12:20:34;;;;;;;;;12.25;11.75;;;;;;;;5095723;27;45583;-74
2022/10/19 12:23:03;;;;;;;;;13.25;10.00;;;;;;;;5087478;27;46229;-72
2022/10/19 12:25:28;;;;;;;;;11.50;11.50;;;;;;;;5084397;27;45450;-72
2022/10/19 12:27:54;;;;;;;;;10.25;10.25;;;;;;;;5081145;27;45355;-72
2022/10/19 12:30:21;;;;;;;;;10.25;10.25;;;;;;;;5086032;27;45595;-72
2022/10/19 12:33:00;;;;;;;;;10.00;10.00;;;;;;;;5073012;27;47631;-72
2022/10/19 12:35:31;;;;;;;;;13.25;11.00;;;;;;;;5088023;27;45272;-72
2022/10/19 12:37:58;;;;;;;;;10.75;8.00;;;;;;;;5085845;27;45268;-73
2022/10/19 12:40:24;;;;;;;;;9.75;9.75;;;;;;;;5088192;27;45446;-72
2022/10/19 12:42:50;;;;;;;;;13.25;11.00;;;;;;;;5089150;27;46658;-73
2022/10/19 12:45:29;;;;;;;;;13.75;13.75;;;;;;;;5086506;27;45376;-72
2022/10/19 12:48:17;;;;;;;;;13.25;12.50;;;;;;;;5098361;27;45398;-72
2022/10/19 12:50:49;;;;;;;;;13.00;12.00;;;;;;;;5092929;27;45303;-72
2022/10/19 12:53:37;;;;;;;;;14.00;13.00;;;;;;;;5089743;27;45348;-73
2022/10/19 12:56:08;;;;;;;;;12.50;12.00;;;;;;;;5072201;27;46373;-73
2022/10/19 12:58:42;;;;;;;;;14.25;10.00;;;;;;;;5088393;27;45537;-73
2022/10/19 13:01:08;;;;;;;;;14.75;13.75;;;;;;;;5084303;27;45392;-73
2022/10/19 13:03:44;;;;;;;;;13.75;13.75;;;;;;;;5090514;27;45453;-73
2022/10/19 13:06:11;;;;;;;;;13.25;11.50;;;;;;;;5085457;27;45540;-73
2022/10/19 13:08:47;;;;;;;;;13.00;11.00;;;;;;;;5088851;27;45345;-73
2022/10/19 13:11:14;;;;;;;;;13.75;11.00;;;;;;;;5089880;27;45905;-73
2022/10/19 13:13:58;;;;;;;;;14.25;13.50;;;;;;;;5090119;27;46316;-73
2022/10/19 13:16:30;;;;;;;;;16.25;12.75;;;;;;;;5090856;27;45451;-73
2022/10/19 13:18:58;;;;;;;;;13.75;11.00;;;;;;;;5093774;27;45257;-72
2022/10/19 13:21:42;;;;;;;;;12.50;11.50;;;;;;;;5094102;27;45573;-74
2022/10/19 13:24:23;;;;;;;;;15.00;11.25;;;;;;;;5099660;27;46068;-73
2022/10/19 13:26:57;;;;;;;;;8.25;8.25;;;;;;;;5089616;27;45354;-73
2022/10/19 13:29:23;;;;;;;;;8.00;6.75;;;;;;;;5085976;27;45417;-73
2022/10/19 13:31:48;;;;;;;;;11.75;10.75;;;;;;;;5086034;27;45688;-73
2022/10/19 13:34:14;;;;;;;;;14.25;12.00;;;;;;;;5092265;27;45564;-73
2022/10/19 13:36:57;;;;;;;;;10.50;10.00;;;;;;;;5084897;27;45300;-73
2022/10/19 13:39:26;;;;;;;;;11.75;11.00;;;;;;;;5084904;27;45296;-73
2022/10/19 13:41:51;;;;;;;;;13.00;12.00;;;;;;;;5091250;27;45417;-74
2022/10/19 13:44:21;;;;;;;;;12.75;12.00;;;;;;;;5092622;27;45599;-74
2022/10/19 13:46:58;;;;;;;;;11.25;11.25;;;;;;;;5090442;27;45626;-73
2022/10/19 13:49:32;;;;;;;;;12.75;11.25;;;;;;;;5082185;27;45423;-73
2022/10/19 13:52:06;;;;;;;;;11.75;11.00;;;;;;;;5091429;27;45300;-74
2022/10/19 13:54:44;;;;;;;;;13.75;12.75;;;;;;;;5100104;27;46391;-74
2022/10/19 13:57:27;;;;;;;;;13.00;12.25;;;;;;;;5092472;27;45511;-74
2022/10/19 14:00:04;;;;;;;;;12.50;10.75;;;;;;;;5081230;27;45458;-75
2022/10/19 14:02:29;;;;;;;;;15.50;11.00;;;;;;;;5087522;27;45498;-74
2022/10/19 14:05:00;;;;;;;;;13.75;12.25;;;;;;;;5088051;27;45580;-74
2022/10/19 14:07:30;;;;;;;;;8.50;8.50;;;;;;;;5087730;27;45471;-73
2022/10/19 14:10:00;;;;;;;;;13.00;13.00;;;;;;;;5087894;27;45392;-74
2022/10/19 14:12:27;;;;;;;;;10.00;10.00;;;;;;;;5073520;27;45574;-74
2022/10/19 14:14:53;;;;;;;;;12.00;12.00;;;;;;;;5090462;27;45314;-74
2022/10/19 14:17:19;;;;;;;;;10.50;10.50;;;;;;;;5094600;27;45354;-74
2022/10/19 14:19:53;;;;;;;;;9.00;9.00;;;;;;;;5097277;27;45226;-75
2022/10/19 14:22:32;;;;;;;;;11.50;9.25;;;;;;;;5092440;27;45352;-74
2022/10/19 14:25:03;;;;;;;;;11.75;10.50;;;;;;;;5086132;27;46382;-74
2022/10/19 14:27:29;;;;;;;;;11.75;10.25;;;;;;;;5095687;27;45405;-74
2022/10/19 14:29:54;;;;;;;;;10.00;10.00;;;;;;;;5087381;27;45372;-74